Time;durP1;ratioP1;P1;durP2;ratioP2;P2;SDS_P1;SDS_P2;PMS_P1;PMS_P2;Temp;Humidity;BMP_temperature;BMP_pressure;BME280_temperature;BME280_humidity;BME280_pressure;Samples;Min_cycle;Max_cycle;Signal;HPM_P1;HPM_P2
2021/12/23 00:00:09;;;;;;;45.58;23.92;;;;;;;-3.30;75.88;96971.69;4981154;28;20054;-80
2021/12/23 00:02:38;;;;;;;47.22;23.45;;;;;;;-3.32;75.98;96982.00;4980785;28;20050;-80
2021/12/23 00:05:07;;;;;;;47.65;24.40;;;;;;;-3.35;76.04;96974.50;4981047;28;20057;-80
2021/12/23 00:07:34;;;;;;;42.50;22.67;;;;;;;-3.33;75.98;96972.69;4979560;28;20051;-80
2021/12/23 00:10:06;;;;;;;45.55;23.98;;;;;;;-3.32;76.15;96973.53;4980392;28;20428;-80
2021/12/23 00:12:36;;;;;;;49.63;24.33;;;;;;;-3.31;76.17;96973.41;4980198;28;20058;-82
2021/12/23 00:15:09;;;;;;;47.40;24.10;;;;;;;-3.32;75.52;96960.75;4980507;28;20058;-80
2021/12/23 00:17:56;;;;;;;44.45;24.00;;;;;;;-3.37;75.33;96961.03;4981844;28;20520;-81
2021/12/23 00:23:25;;;;;;;44.67;23.15;;;;;;;-3.42;75.83;96947.69;4982536;28;20057;-80
2021/12/23 00:25:55;;;;;;;43.47;22.95;;;;;;;-3.44;75.44;96949.50;4982582;28;20074;-80
2021/12/23 00:28:23;;;;;;;42.50;22.08;;;;;;;-3.43;75.63;96943.50;4981668;28;20050;-79
2021/12/23 00:30:52;;;;;;;45.22;23.73;;;;;;;-3.45;75.44;96945.31;4981904;28;20053;-80
2021/12/23 00:33:22;;;;;;;42.00;22.50;;;;;;;-3.46;75.39;96943.66;4981575;28;20051;-80
2021/12/23 00:35:50;;;;;;;41.88;23.05;;;;;;;-3.45;75.42;96947.06;4981051;28;20067;-79
2021/12/23 00:38:23;;;;;;;46.80;23.95;;;;;;;-3.45;75.85;96936.84;4980920;28;20042;-80
2021/12/23 00:40:52;;;;;;;46.10;24.25;;;;;;;-3.44;75.89;96941.84;4980939;28;20066;-83
2021/12/23 00:43:20;;;;;;;46.10;24.25;;;;;;;-3.43;76.26;96946.06;4980560;28;20054;-81
2021/12/23 00:45:48;;;;;;;48.45;24.58;;;;;;;-3.41;76.02;96934.03;4980531;28;20051;-80
2021/12/23 00:48:18;;;;;;;43.83;23.52;;;;;;;-3.40;75.77;96940.78;4980314;28;20047;-80
2021/12/23 00:50:46;;;;;;;50.95;24.40;;;;;;;-3.38;75.55;96938.16;4979632;28;20047;-82
2021/12/23 00:53:18;;;;;;;47.92;24.23;;;;;;;-3.38;76.01;96943.25;4978531;28;20062;-80
2021/12/23 00:55:48;;;;;;;49.25;25.63;;;;;;;-3.37;76.04;96934.69;4980440;28;20054;-80
2021/12/23 00:58:16;;;;;;;47.65;23.70;;;;;;;-3.36;75.86;96932.03;5009606;23;20050;-76
2021/12/23 01:00:44;;;;;;;50.35;26.23;;;;;;;-3.37;75.88;96927.88;5015087;28;20046;-75
2021/12/23 01:03:13;;;;;;;49.83;24.17;;;;;;;-3.36;75.78;96923.59;5015518;28;20080;-76
2021/12/23 01:05:42;;;;;;;52.85;26.63;;;;;;;-3.38;75.44;96920.28;5015147;28;20052;-75
2021/12/23 01:08:10;;;;;;;46.80;23.58;;;;;;;-3.39;76.27;96914.38;5014708;28;20056;-76
2021/12/23 01:10:37;;;;;;;46.25;25.33;;;;;;;-3.39;75.91;96916.94;5015594;28;20481;-76
2021/12/23 01:13:06;;;;;;;50.67;25.77;;;;;;;-3.39;75.57;96919.47;5021393;28;20412;-76
2021/12/23 01:18:23;;;;;;;48.15;24.73;;;;;;;-3.47;75.45;96903.78;5020523;28;20463;-76
2021/12/23 01:20:53;;;;;;;47.10;23.77;;;;;;;-3.47;75.27;96900.41;5019660;28;20054;-77
2021/12/23 01:23:23;;;;;;;49.38;25.90;;;;;;;-3.53;75.45;96899.03;5018441;28;20052;-76
2021/12/23 01:25:52;;;;;;;51.72;26.83;;;;;;;-3.55;75.64;96893.19;5016982;28;20057;-75
2021/12/23 01:28:21;;;;;;;47.50;24.15;;;;;;;-3.53;75.63;96891.38;5016780;28;20046;-76
2021/12/23 01:30:49;;;;;;;47.95;25.75;;;;;;;-3.50;75.60;96903.94;5017376;28;20065;-76
2021/12/23 01:33:17;;;;;;;49.13;25.35;;;;;;;-3.49;75.58;96903.06;5017079;28;20088;-76
2021/12/23 01:35:49;;;;;;;47.88;24.15;;;;;;;-3.46;75.82;96909.69;5016454;28;20072;-76
2021/12/23 01:38:18;;;;;;;;;;;;;;;-3.40;76.29;96920.38;5016897;28;20057;-77
2021/12/23 01:40:46;;;;;;;48.45;25.25;;;;;;;-3.39;75.34;96918.63;5016323;28;19921;-78
2021/12/23 01:43:16;;;;;;;55.55;26.52;;;;;;;-3.43;75.82;96925.66;5015532;28;20050;-75
2021/12/23 01:45:46;;;;;;;50.13;25.08;;;;;;;-3.44;75.55;96924.00;5015496;28;20077;-75
2021/12/23 01:48:14;;;;;;;49.15;25.80;;;;;;;-3.43;75.91;96923.09;5015867;28;20042;-76
2021/12/23 01:50:42;;;;;;;50.58;25.40;;;;;;;-3.42;75.94;96929.84;5014937;28;20061;-76
2021/12/23 01:53:10;;;;;;;51.25;25.33;;;;;;;-3.41;76.15;96913.66;5015014;28;20054;-76
2021/12/23 01:55:42;;;;;;;49.97;25.88;;;;;;;-3.38;75.62;96917.75;5014560;28;20508;-76
2021/12/23 01:58:13;;;;;;;50.50;24.67;;;;;;;-3.38;75.87;96912.66;5014272;28;20050;-76
2021/12/23 02:00:47;;;;;;;52.42;26.50;;;;;;;-3.37;75.74;96916.81;5014099;28;20053;-76
2021/12/23 02:03:15;;;;;;;52.03;25.50;;;;;;;-3.35;75.85;96902.25;5013914;28;20046;-75
2021/12/23 02:05:43;;;;;;;50.60;25.35;;;;;;;-3.36;75.53;96885.31;5013412;28;20049;-76
2021/12/23 02:08:30;;;;;;;50.45;25.38;;;;;;;-3.37;75.25;96876.84;5013673;28;20092;-76
2021/12/23 02:11:00;;;;;;;44.88;23.58;;;;;;;-3.38;75.03;96882.03;5013762;28;20049;-76
2021/12/23 02:13:28;;;;;;;45.22;23.25;;;;;;;-3.42;75.15;96867.81;5014051;28;20050;-76
2021/12/23 02:15:55;;;;;;;46.13;24.08;;;;;;;-3.46;74.81;96853.59;5013689;28;20046;-76
2021/12/23 02:18:23;;;;;;;49.25;23.58;;;;;;;-3.50;74.97;96868.25;5013843;28;20419;-75
2021/12/23 02:20:53;;;;;;;47.38;24.15;;;;;;;-3.50;74.98;96863.13;5014082;28;20049;-75
2021/12/23 02:23:21;;;;;;;44.10;23.17;;;;;;;-3.55;74.75;96860.03;5013846;28;20538;-75
2021/12/23 02:25:49;;;;;;;47.53;24.35;;;;;;;-3.62;74.78;96853.66;5017363;28;20057;-76
2021/12/23 02:28:17;;;;;;;47.35;23.58;;;;;;;-3.66;74.99;96854.75;5019650;28;20049;-76
2021/12/23 02:30:45;;;;;;;44.92;23.52;;;;;;;-3.65;75.01;96854.66;5018689;28;20056;-76
2021/12/23 02:33:13;;;;;;;45.95;23.63;;;;;;;-3.63;74.82;96836.72;5019398;28;20156;-76
2021/12/23 02:35:40;;;;;;;47.25;23.70;;;;;;;-3.63;74.97;96839.25;5011039;28;20061;-76
2021/12/23 02:38:09;;;;;;;50.50;25.00;;;;;;;-3.61;74.83;96834.88;5018588;28;20057;-76
2021/12/23 02:40:38;;;;;;;49.33;24.55;;;;;;;-3.61;74.58;96823.00;5017793;28;20050;-76
2021/12/23 02:43:12;;;;;;;47.65;22.95;;;;;;;-3.61;74.80;96830.63;5016835;28;20054;-75
2021/12/23 02:45:41;;;;;;;43.53;22.55;;;;;;;-3.59;74.70;96833.06;5016550;28;20050;-76
2021/12/23 02:48:14;;;;;;;52.95;24.33;;;;;;;-3.59;74.36;96839.00;5016259;28;20153;-76
2021/12/23 02:50:42;;;;;;;48.22;23.95;;;;;;;-3.58;74.48;96827.09;5015875;28;20058;-77
2021/12/23 02:53:11;;;;;;;52.67;24.88;;;;;;;-3.53;74.74;96819.97;5015226;28;20053;-76
2021/12/23 02:55:38;;;;;;;48.38;24.15;;;;;;;-3.53;74.90;96823.34;5015046;28;20065;-76
2021/12/23 02:58:06;;;;;;;53.33;24.58;;;;;;;-3.55;74.43;96812.41;5013922;28;20053;-76
2021/12/23 03:00:35;;;;;;;49.30;24.30;;;;;;;-3.53;74.61;96797.84;5014236;28;20548;-77
2021/12/23 03:03:03;;;;;;;53.20;24.60;;;;;;;-3.51;74.56;96805.41;5018464;28;20046;-76
2021/12/23 03:05:30;;;;;;;50.25;22.88;;;;;;;-3.51;74.43;96800.31;5016901;28;20046;-76
2021/12/23 03:07:59;;;;;;;48.20;23.08;;;;;;;-3.53;74.38;96794.47;5015475;28;20057;-76
2021/12/23 03:10:28;;;;;;;48.60;24.92;;;;;;;-3.50;74.29;96804.47;5014337;28;20073;-76
2021/12/23 03:12:56;;;;;;;47.28;23.27;;;;;;;-3.48;74.11;96794.19;5014235;28;20057;-77
2021/12/23 03:15:24;;;;;;;52.38;25.30;;;;;;;-3.46;73.95;96800.03;5013747;28;20049;-77
2021/12/23 03:17:51;;;;;;;46.22;22.90;;;;;;;-3.48;73.95;96800.13;5012546;28;20046;-76
2021/12/23 03:20:19;;;;;;;52.55;25.23;;;;;;;-3.48;73.79;96795.00;5013493;28;20050;-76
2021/12/23 03:22:46;;;;;;;48.78;23.00;;;;;;;-3.45;73.88;96787.19;5013356;28;20065;-75
2021/12/23 03:25:14;;;;;;;51.63;25.45;;;;;;;-3.44;73.41;96791.38;5013362;28;20066;-75
2021/12/23 03:27:43;;;;;;;54.40;24.00;;;;;;;-3.46;73.82;96787.28;5012097;28;20076;-75
2021/12/23 03:30:11;;;;;;;49.63;25.60;;;;;;;-3.44;73.83;96791.38;5012794;28;20407;-76
2021/12/23 03:32:39;;;;;;;48.13;22.52;;;;;;;-3.46;73.47;96782.19;5012847;28;20060;-76
2021/12/23 03:35:07;;;;;;;55.30;26.77;;;;;;;-3.48;73.71;96782.25;5012525;28;20058;-76
2021/12/23 03:37:35;;;;;;;46.95;22.77;;;;;;;-3.50;73.46;96781.53;5012194;28;20061;-75
2021/12/23 03:40:03;;;;;;;51.22;24.85;;;;;;;-3.52;73.63;96768.06;5012330;28;20053;-75
2021/12/23 03:42:31;;;;;;;55.60;26.65;;;;;;;-3.51;73.80;96769.72;5012609;28;20057;-76
2021/12/23 03:45:00;;;;;;;46.10;22.58;;;;;;;-3.52;73.34;96768.91;5012902;28;20061;-76
2021/12/23 03:47:27;;;;;;;49.72;22.67;;;;;;;-3.54;73.52;96760.50;5012931;28;20058;-76
2021/12/23 03:49:55;;;;;;;48.28;24.77;;;;;;;-3.53;73.89;96759.59;5013024;28;20054;-76
2021/12/23 03:52:22;;;;;;;50.92;24.65;;;;;;;-3.51;73.85;96756.97;5012984;28;20052;-76
2021/12/23 03:54:50;;;;;;;50.35;24.88;;;;;;;-3.48;74.38;96749.13;5012647;28;20057;-75
2021/12/23 03:57:17;;;;;;;50.53;23.60;;;;;;;-3.47;73.95;96750.78;5012725;28;20054;-76
2021/12/23 03:59:45;;;;;;;48.45;22.35;;;;;;;-3.47;73.76;96745.66;5012512;28;20045;-76
2021/12/23 04:02:14;;;;;;;44.45;22.17;;;;;;;-3.49;73.51;96744.94;5012813;28;20443;-76
2021/12/23 04:04:41;;;;;;;47.83;21.83;;;;;;;-3.55;73.32;96750.41;5012813;28;20065;-76
2021/12/23 04:07:09;;;;;;;49.28;23.10;;;;;;;-3.57;74.13;96744.56;5012396;28;20057;-78
2021/12/23 04:09:36;;;;;;;47.95;22.10;;;;;;;-3.57;74.29;96734.38;5012293;28;20508;-75
2021/12/23 04:12:05;;;;;;;50.45;23.52;;;;;;;-3.57;74.18;96745.38;5012581;28;20050;-76
2021/12/23 04:14:32;;;;;;;49.35;21.98;;;;;;;-3.57;73.96;96745.38;5012661;28;20054;-76
2021/12/23 04:17:00;;;;;;;48.95;22.70;;;;;;;-3.55;74.16;96743.56;5012153;28;20065;-75
2021/12/23 04:19:31;;;;;;;48.05;23.80;;;;;;;-3.53;73.97;96743.47;5012447;28;20053;-76
2021/12/23 04:21:59;;;;;;;47.70;21.30;;;;;;;-3.56;73.70;96741.94;5012343;28;20046;-75
2021/12/23 04:24:27;;;;;;;46.88;23.15;;;;;;;-3.57;74.07;96731.81;5012251;28;20046;-75
2021/12/23 04:26:54;;;;;;;45.97;21.75;;;;;;;-3.57;74.02;96724.97;5012107;28;20116;-76
2021/12/23 04:29:23;;;;;;;46.60;23.17;;;;;;;-3.57;73.93;96724.16;5014993;28;20512;-76
2021/12/23 04:31:50;;;;;;;46.33;20.45;;;;;;;-3.57;74.16;96731.81;5016017;28;20053;-76
2021/12/23 04:34:18;;;;;;;55.63;22.83;;;;;;;-3.57;74.15;96729.25;5015585;28;20058;-75
2021/12/23 04:36:47;;;;;;;45.28;22.23;;;;;;;-3.57;74.10;96724.97;5015192;28;20050;-75
2021/12/23 04:39:15;;;;;;;48.88;23.95;;;;;;;-3.59;74.58;96721.69;5015135;28;20527;-76
2021/12/23 04:41:42;;;;;;;57.88;23.95;;;;;;;-3.57;74.41;96721.63;5015607;28;20061;-75
2021/12/23 04:44:10;;;;;;;46.75;22.40;;;;;;;-3.57;74.44;96719.06;5015288;28;20427;-77
2021/12/23 04:46:38;;;;;;;53.42;24.75;;;;;;;-3.57;74.33;96726.72;5014276;28;20347;-75
2021/12/23 04:49:06;;;;;;;49.25;24.08;;;;;;;-3.55;74.58;96718.06;5013221;28;20045;-76
2021/12/23 04:51:33;;;;;;;47.50;21.88;;;;;;;-3.55;74.41;96722.34;5013144;28;20554;-75
2021/12/23 04:54:02;;;;;;;48.33;22.92;;;;;;;-3.58;74.30;96720.81;5013512;28;20060;-75
2021/12/23 04:56:30;;;;;;;50.78;24.80;;;;;;;-3.60;74.28;96717.53;5015055;28;20523;-75
2021/12/23 04:58:58;;;;;;;53.95;25.10;;;;;;;-3.60;74.27;96729.47;5015453;28;20424;-75
2021/12/23 05:01:29;;;;;;;47.83;22.27;;;;;;;-3.65;74.40;96719.53;5015252;28;20046;-79
2021/12/23 05:03:57;;;;;;;52.28;24.33;;;;;;;-3.65;74.50;96719.53;5015478;28;20054;-76
2021/12/23 05:06:25;;;;;;;48.50;22.10;;;;;;;-3.65;74.44;96711.03;5015152;28;20104;-76
2021/12/23 05:08:53;;;;;;;46.90;21.30;;;;;;;-3.62;74.57;96714.25;5015322;28;20466;-76
2021/12/23 05:11:22;;;;;;;51.55;22.83;;;;;;;-3.58;74.65;96712.34;5015057;28;20419;-76
2021/12/23 05:13:50;;;;;;;56.28;23.92;;;;;;;-3.55;74.46;96712.16;5016073;28;20069;-75
2021/12/23 05:16:18;;;;;;;49.42;21.55;;;;;;;-3.56;74.37;96706.25;5014820;28;20049;-76
2021/12/23 05:18:46;;;;;;;46.80;21.98;;;;;;;-3.57;74.38;96713.97;5014999;28;20546;-76
2021/12/23 05:21:13;;;;;;;44.83;20.90;;;;;;;-3.58;74.37;96707.25;5015116;28;20046;-75
2021/12/23 05:23:41;;;;;;;46.55;21.52;;;;;;;-3.60;74.41;96704.78;5014974;28;20058;-75
2021/12/23 05:26:09;;;;;;;49.90;24.13;;;;;;;-3.57;74.69;96693.56;5015184;28;20054;-76
2021/12/23 05:28:38;;;;;;;54.80;23.30;;;;;;;-3.54;74.63;96698.50;5014962;28;20053;-76
2021/12/23 05:31:06;;;;;;;48.85;21.75;;;;;;;-3.52;74.46;96682.19;5014993;28;20061;-76
2021/12/23 05:33:33;;;;;;;46.22;21.88;;;;;;;-3.50;74.27;96674.44;5014668;28;20049;-75
2021/12/23 05:36:01;;;;;;;46.08;21.30;;;;;;;-3.49;74.42;96678.63;5014474;28;20058;-77
2021/12/23 05:38:29;;;;;;;43.38;20.83;;;;;;;-3.45;74.60;96671.63;5014691;28;20049;-76
2021/12/23 05:40:56;;;;;;;43.87;23.13;;;;;;;-3.42;74.21;96673.97;5014481;28;20085;-76
2021/12/23 05:43:24;;;;;;;46.63;21.55;;;;;;;-3.39;74.17;96683.97;5015919;28;20065;-76
2021/12/23 05:45:53;;;;;;;47.70;23.33;;;;;;;-3.37;73.93;96667.69;5015815;28;20065;-74
2021/12/23 05:48:20;;;;;;;46.88;22.48;;;;;;;-3.42;73.83;96656.94;5015217;28;20058;-74
2021/12/23 05:50:48;;;;;;;52.50;22.75;;;;;;;-3.44;74.35;96653.66;5014575;28;20046;-75
2021/12/23 05:53:16;;;;;;;45.13;21.60;;;;;;;-3.46;74.18;96647.84;5012050;28;20038;-75
2021/12/23 05:55:43;;;;;;;46.45;21.35;;;;;;;-3.46;74.17;96655.47;5012084;28;20054;-76
2021/12/23 05:58:11;;;;;;;47.45;23.10;;;;;;;-3.45;74.08;96652.03;5023013;28;20050;-77
2021/12/23 06:00:38;;;;;;;47.63;22.23;;;;;;;-3.45;73.81;96635.94;5006853;28;20458;-76
2021/12/23 06:03:07;;;;;;;46.92;21.15;;;;;;;-3.44;74.11;96637.53;5024578;28;20128;-76
2021/12/23 06:05:35;;;;;;;51.17;23.63;;;;;;;-3.42;74.23;96641.63;5013988;28;20078;-76
2021/12/23 06:08:02;;;;;;;47.30;21.77;;;;;;;-3.40;73.93;96654.31;5013934;28;20050;-76
2021/12/23 06:10:30;;;;;;;44.17;21.10;;;;;;;-3.39;73.74;96661.88;5006903;28;20049;-76
2021/12/23 06:12:57;;;;;;;44.55;21.33;;;;;;;-3.36;73.99;96671.88;5017788;28;20061;-74
2021/12/23 06:15:25;;;;;;;45.42;21.00;;;;;;;-3.31;73.92;96659.66;5016980;28;20053;-77
2021/12/23 06:17:52;;;;;;;48.30;21.67;;;;;;;-3.27;73.83;96660.28;5017155;28;20524;-79
2021/12/23 06:20:21;;;;;;;48.65;23.17;;;;;;;-3.26;73.67;96667.00;5017952;28;20050;-81
2021/12/23 06:22:49;;;;;;;47.20;22.98;;;;;;;-3.21;73.96;96664.19;5016063;28;20050;-77
2021/12/23 06:25:17;;;;;;;45.60;22.70;;;;;;;-3.17;73.89;96668.19;5015814;28;20050;-78
2021/12/23 06:27:45;;;;;;;44.60;22.40;;;;;;;-3.11;73.88;96662.69;5031168;28;20053;-75
2021/12/23 06:30:16;;;;;;;47.30;23.35;;;;;;;-3.11;73.53;96647.38;5013189;28;20058;-76
2021/12/23 06:32:44;;;;;;;51.85;22.63;;;;;;;-3.17;73.04;96645.22;5006247;28;20057;-75
2021/12/23 06:35:12;;;;;;;48.25;22.60;;;;;;;-3.19;73.33;96647.88;5001957;28;20073;-75
2021/12/23 06:37:43;;;;;;;45.55;21.23;;;;;;;-3.19;73.33;96636.84;5009462;28;20058;-76
2021/12/23 06:40:11;;;;;;;51.35;23.65;;;;;;;-3.18;73.30;96624.00;5015612;28;20057;-76
2021/12/23 06:42:39;;;;;;;54.65;23.80;;;;;;;-3.17;73.42;96619.69;5011683;28;20046;-76
2021/12/23 06:45:07;;;;;;;49.15;24.50;;;;;;;-3.16;73.28;96617.06;5013259;28;20050;-76
2021/12/23 06:47:36;;;;;;;51.95;21.88;;;;;;;-3.16;73.55;96634.09;5013091;28;20056;-76
2021/12/23 06:50:06;;;;;;;53.03;24.67;;;;;;;-3.15;73.87;96640.84;5013672;28;20064;-75
2021/12/23 06:52:33;;;;;;;48.25;21.98;;;;;;;-3.20;73.14;96630.09;5012639;28;20504;-73
2021/12/23 06:55:03;;;;;;;51.17;23.10;;;;;;;-3.26;73.43;96625.38;5012503;28;20519;-74
2021/12/23 06:57:31;;;;;;;50.03;24.13;;;;;;;-3.25;73.34;96629.59;5012841;28;20077;-74
2021/12/23 06:59:59;;;;;;;48.75;22.73;;;;;;;-3.23;73.62;96625.22;5031516;23;20053;-79
2021/12/23 07:02:26;;;;;;;51.33;24.17;;;;;;;-3.23;73.31;96622.66;5011824;28;20051;-78
2021/12/23 07:04:54;;;;;;;45.70;21.58;;;;;;;-3.27;73.32;96621.22;5012390;28;20060;-79
2021/12/23 07:07:28;;;;;;;53.65;22.42;;;;;;;-3.31;72.97;96618.84;5012330;28;20049;-78
2021/12/23 07:09:57;;;;;;;51.08;23.20;;;;;;;-3.32;72.99;96629.97;5012397;28;20061;-79
2021/12/23 07:12:26;;;;;;;45.03;20.70;;;;;;;-3.30;72.85;96619.69;5011813;28;20042;-79
2021/12/23 07:14:54;;;;;;;47.38;22.63;;;;;;;-3.29;73.01;96630.69;5012176;28;20468;-79
2021/12/23 07:17:24;;;;;;;45.83;22.92;;;;;;;-3.29;72.88;96623.84;5012145;28;20054;-78
2021/12/23 07:19:51;;;;;;;48.40;22.60;;;;;;;-3.23;73.00;96625.22;5012569;28;20432;-79
2021/12/23 07:22:19;;;;;;;47.25;22.70;;;;;;;-3.21;72.97;96625.94;5012513;28;20065;-79
2021/12/23 07:24:46;;;;;;;46.90;22.25;;;;;;;-3.20;72.81;96636.03;5012896;28;20056;-80
2021/12/23 07:27:14;;;;;;;46.20;22.23;;;;;;;-3.18;72.83;96651.25;5013706;28;20061;-80
2021/12/23 07:29:43;;;;;;;47.58;22.58;;;;;;;-3.18;72.72;96644.41;5012415;28;20049;-79
2021/12/23 07:32:10;;;;;;;51.08;23.67;;;;;;;-3.17;72.74;96635.00;5014049;28;20045;-81
2021/12/23 07:34:42;;;;;;;48.85;24.42;;;;;;;-3.18;72.79;96643.59;5005280;28;20046;-79
2021/12/23 07:37:10;;;;;;;56.53;24.80;;;;;;;-3.14;73.04;96639.94;5013061;28;20054;-79
2021/12/23 07:39:39;;;;;;;50.58;22.75;;;;;;;-3.11;73.02;96637.19;5012351;28;20440;-80
2021/12/23 07:42:28;;;;;;;53.08;24.73;;;;;;;-3.08;72.74;96628.50;5011525;28;20050;-79
2021/12/23 07:44:57;;;;;;;49.95;24.13;;;;;;;-3.07;72.93;96628.41;5012594;28;20054;-81
2021/12/23 07:47:25;;;;;;;55.47;24.17;;;;;;;-3.04;72.88;96624.84;5015323;28;20061;-80
2021/12/23 07:49:52;;;;;;;51.38;24.02;;;;;;;-3.04;72.66;96630.78;5013482;28;20060;-79
2021/12/23 07:52:21;;;;;;;49.85;22.50;;;;;;;-3.03;72.41;96621.41;5013021;28;20423;-80
2021/12/23 07:54:50;;;;;;;56.97;24.10;;;;;;;-3.02;72.59;96617.91;5013725;28;20050;-78
2021/12/23 07:57:18;;;;;;;47.92;22.98;;;;;;;-3.01;72.79;96614.47;5011710;28;20492;-78
2021/12/23 07:59:45;;;;;;;49.80;23.35;;;;;;;-2.99;72.50;96603.25;5012011;28;20455;-79
2021/12/23 08:02:14;;;;;;;51.75;24.83;;;;;;;-2.97;72.56;96606.50;5011842;28;20054;-79
2021/12/23 08:04:46;;;;;;;47.20;22.20;;;;;;;-2.92;72.48;96608.78;5015676;28;20105;-78
2021/12/23 08:07:13;;;;;;;46.85;22.90;;;;;;;-2.91;72.07;96606.13;5014900;28;20041;-79
2021/12/23 08:09:41;;;;;;;54.72;24.20;;;;;;;-2.91;72.43;96616.34;5018382;28;20062;-78
2021/12/23 08:12:10;;;;;;;49.60;22.73;;;;;;;-2.87;72.50;96608.47;5018444;28;20435;-78
2021/12/23 08:14:37;;;;;;;50.55;23.70;;;;;;;-2.83;72.51;96607.38;5015648;28;20054;-78
2021/12/23 08:17:21;;;;;;;45.17;21.52;;;;;;;-2.78;72.28;96611.22;5016803;28;20100;-80
2021/12/23 08:19:49;;;;;;;45.88;22.38;;;;;;;-2.75;72.33;96597.47;5017596;28;20060;-81
2021/12/23 08:22:17;;;;;;;43.95;20.70;;;;;;;-2.68;72.21;96601.25;5017989;28;20046;-80
2021/12/23 08:24:44;;;;;;;44.15;21.33;;;;;;;-2.63;72.40;96604.31;5017457;28;20061;-80
2021/12/23 08:27:12;;;;;;;46.35;23.05;;;;;;;-2.55;72.18;96606.41;5017129;28;20133;-80
2021/12/23 08:29:39;;;;;;;47.22;23.05;;;;;;;-2.48;71.94;96594.84;5016351;28;20053;-80
2021/12/23 08:32:08;;;;;;;44.85;23.08;;;;;;;-2.40;72.03;96595.16;5017433;28;20050;-80
2021/12/23 08:34:37;;;;;;;53.50;22.85;;;;;;;-2.29;72.27;96594.44;5017164;28;20100;-80
2021/12/23 08:37:10;;;;;;;41.35;20.73;;;;;;;-2.17;71.96;96603.03;5016068;28;20049;-80
2021/12/23 08:39:38;;;;;;;;;;;;;;;-2.07;71.66;96598.94;5021252;28;20050;-80
2021/12/23 08:42:07;;;;;;;40.75;19.52;;;;;;;-1.99;71.53;96583.06;5026624;28;19921;-81
2021/12/23 08:44:36;;;;;;;38.05;19.88;;;;;;;-1.93;71.23;96585.22;5027395;28;20053;-81
2021/12/23 08:47:04;;;;;;;40.63;21.05;;;;;;;-1.87;71.19;96584.81;5027542;28;20046;-84
2021/12/23 08:49:31;;;;;;;44.22;19.80;;;;;;;-1.80;71.26;96572.41;5022335;28;20400;-80
2021/12/23 08:52:01;;;;;;;42.83;21.42;;;;;;;-1.73;71.13;96582.13;5020087;28;20058;-81
2021/12/23 08:54:28;;;;;;;39.63;21.23;;;;;;;-1.69;70.72;96580.97;5019928;28;20046;-81
2021/12/23 08:56:56;;;;;;;39.30;18.73;;;;;;;-1.63;70.93;96584.03;5019117;28;20510;-80
2021/12/23 08:59:24;;;;;;;37.15;19.25;;;;;;;-1.58;70.69;96566.63;5019795;28;20050;-83
2021/12/23 09:01:52;;;;;;;39.65;20.30;;;;;;;-1.54;70.73;96571.41;5024513;28;20046;-83
2021/12/23 09:04:21;;;;;;;36.38;20.02;;;;;;;-1.47;71.27;96570.03;5023939;28;20486;-83
2021/12/23 09:06:49;;;;;;;40.58;20.33;;;;;;;-1.39;70.70;96572.09;5021590;28;20050;-79
2021/12/23 09:09:19;;;;;;;38.45;18.67;;;;;;;-1.36;70.61;96556.50;5019458;28;20053;-86
2021/12/23 09:11:47;;;;;;;37.25;18.60;;;;;;;-1.31;70.53;96569.81;5020642;28;20057;-85
2021/12/23 09:14:15;;;;;;;44.63;20.15;;;;;;;-1.22;70.45;96567.50;5019433;28;20050;-82
2021/12/23 09:16:43;;;;;;;42.05;21.50;;;;;;;-1.16;70.60;96567.06;5019279;28;20068;-83
2021/12/23 09:19:10;;;;;;;46.75;22.27;;;;;;;-1.07;70.65;96576.66;5018971;28;20077;-83
2021/12/23 09:21:38;;;;;;;40.35;19.77;;;;;;;-1.00;70.49;96572.72;5017187;28;20070;-82
2021/12/23 09:24:06;;;;;;;41.83;21.40;;;;;;;-0.92;70.13;96580.69;5014817;28;20054;-79
2021/12/23 09:26:45;;;;;;;41.80;21.42;;;;;;;-0.88;70.31;96574.38;5014385;28;20057;-81
2021/12/23 09:29:18;;;;;;;37.72;20.60;;;;;;;-0.86;70.13;96575.09;5014885;28;20050;-79
2021/12/23 09:34:31;;;;;;;41.60;19.77;;;;;;;-0.78;70.24;96563.50;5016198;28;20530;-80
2021/12/23 09:36:58;;;;;;;43.88;20.95;;;;;;;-0.75;70.25;96561.50;5016612;28;20053;-80
2021/12/23 09:39:27;;;;;;;38.72;20.45;;;;;;;-0.67;70.54;96555.84;5016535;28;20106;-81
2021/12/23 09:41:57;;;;;;;39.45;20.05;;;;;;;-0.62;70.17;96551.97;5013343;28;20057;-82
2021/12/23 09:44:26;;;;;;;39.28;20.10;;;;;;;-0.58;70.25;96550.03;5015794;28;20053;-80
2021/12/23 09:46:57;;;;;;;40.45;21.15;;;;;;;-0.56;70.21;96540.47;5015825;28;20081;-81
2021/12/23 09:49:25;;;;;;;43.38;20.88;;;;;;;-0.56;70.42;96540.47;5016927;28;20507;-80
2021/12/23 09:51:55;;;;;;;39.42;21.42;;;;;;;-0.56;70.00;96544.78;5015484;28;20046;-80
2021/12/23 09:54:25;;;;;;;41.63;21.30;;;;;;;-0.53;70.23;96544.56;5014854;28;20496;-79
2021/12/23 09:56:53;;;;;;;43.88;22.25;;;;;;;-0.51;70.12;96547.81;5014777;28;20050;-79
2021/12/23 09:59:26;;;;;;;39.85;20.45;;;;;;;-0.51;69.98;96538.38;5014200;28;20574;-79
2021/12/23 10:01:54;;;;;;;48.05;23.27;;;;;;;-0.49;70.22;96543.41;5013905;28;20061;-80
2021/12/23 10:04:22;;;;;;;44.25;21.27;;;;;;;-0.48;70.31;96543.28;5018265;28;20054;-81
2021/12/23 10:06:51;;;;;;;41.78;21.48;;;;;;;-0.43;70.38;96537.81;5017090;28;20065;-81
2021/12/23 10:09:36;;;;;;;39.88;21.40;;;;;;;-0.39;70.22;96525.56;5016162;28;20053;-79
2021/12/23 10:12:53;;;;;;;40.40;21.90;;;;;;;-0.35;70.17;96526.97;5014502;28;20060;-79
2021/12/23 10:31:47;;;;;;;46.20;23.23;;;;;;;-0.05;69.86;96522.06;5013975;28;20054;-79
2021/12/23 10:37:16;;;;;;;45.03;21.02;;;;;;;0.02;70.13;96524.19;5013661;28;20109;-78
2021/12/23 10:39:47;;;;;;;41.22;21.50;;;;;;;0.03;69.97;96526.63;5013693;28;20099;-82
2021/12/23 10:42:18;;;;;;;44.85;22.73;;;;;;;0.08;70.41;96528.84;5013507;28;20050;-79
2021/12/23 10:44:50;;;;;;;40.35;21.75;;;;;;;0.08;69.92;96529.66;5013555;28;20049;-79
2021/12/23 10:47:44;;;;;;;45.65;23.75;;;;;;;0.11;70.40;96520.91;5012930;28;20109;-81
2021/12/23 10:50:23;;;;;;;41.60;22.10;;;;;;;0.12;69.98;96509.72;5013673;28;20543;-80
2021/12/23 10:52:53;;;;;;;43.15;21.85;;;;;;;0.15;70.41;96510.31;5013907;28;20049;-80
2021/12/23 10:58:16;;;;;;;46.10;22.25;;;;;;;0.25;70.33;96504.44;5013377;28;20709;-82
2021/12/23 11:00:49;;;;;;;48.40;21.63;;;;;;;0.26;70.36;96496.63;5013334;28;20069;-79
2021/12/23 11:03:25;;;;;;;40.80;21.77;;;;;;;0.31;70.12;96501.41;5014101;28;20085;-80
2021/12/23 11:06:04;;;;;;;41.08;21.70;;;;;;;0.33;70.46;96487.53;5013426;28;20583;-79
2021/12/23 11:08:42;;;;;;;41.55;20.50;;;;;;;0.34;70.50;96484.00;5013932;28;20061;-80
2021/12/23 11:11:46;;;;;;;44.78;21.13;;;;;;;0.36;70.59;96478.75;5013486;28;20054;-79
2021/12/23 11:37:03;;;;;;;44.30;20.97;;;;;;;0.82;69.98;96437.38;5031069;28;20096;-79
2021/12/23 11:42:16;;;;;;;38.50;20.13;;;;;;;0.90;70.01;96429.06;5005010;28;20050;-78
2021/12/23 11:44:44;;;;;;;38.63;20.80;;;;;;;0.93;70.23;96412.56;5015553;28;20058;-78
2021/12/23 11:47:15;;;;;;;39.30;21.23;;;;;;;0.95;70.21;96419.22;5016193;28;20053;-80
2021/12/23 11:49:45;;;;;;;43.88;22.35;;;;;;;0.99;70.25;96407.75;5015475;28;20053;-78
2021/12/23 11:52:15;;;;;;;36.15;20.52;;;;;;;1.05;70.22;96410.75;5014232;28;20053;-78
2021/12/23 11:54:47;;;;;;;39.47;21.15;;;;;;;1.09;70.33;96405.22;5014176;28;20056;-78
2021/12/23 11:57:17;;;;;;;37.33;19.13;;;;;;;1.15;70.46;96421.88;5013984;28;20061;-78
2021/12/23 11:59:58;;;;;;;37.40;20.88;;;;;;;1.18;70.09;96421.63;5013831;28;20058;-78
2021/12/23 12:02:29;;;;;;;36.05;20.42;;;;;;;1.22;70.16;96428.13;5014770;28;20053;-79
2021/12/23 12:05:00;;;;;;;37.90;21.52;;;;;;;1.26;70.24;96421.81;5016462;28;20476;-78
2021/12/23 12:07:29;;;;;;;36.83;20.13;;;;;;;1.27;70.24;96414.91;5015204;28;20056;-78
2021/12/23 12:10:00;;;;;;;41.88;21.13;;;;;;;1.27;70.00;96410.59;5015863;28;20057;-79
2021/12/23 12:12:29;;;;;;;39.80;20.90;;;;;;;1.26;69.96;96418.44;5014846;28;20053;-78
2021/12/23 12:14:57;;;;;;;41.55;20.55;;;;;;;1.27;70.37;96412.34;5006457;28;20492;-77
2021/12/23 12:17:40;;;;;;;37.15;20.15;;;;;;;1.28;70.12;96401.94;5014944;28;20104;-81
2021/12/23 12:20:22;;;;;;;40.58;20.55;;;;;;;1.32;70.38;96402.50;5015452;28;20052;-79
2021/12/23 12:23:03;;;;;;;37.95;20.13;;;;;;;1.35;70.25;96400.47;5015272;28;20050;-78
2021/12/23 12:25:56;;;;;;;36.92;20.23;;;;;;;1.41;70.18;96399.16;5015469;28;20053;-79